Astro Chloe — SVAL7 — position and weather

sailwx.info

Track history (hours):
 
Tides and Currents Weather Stations Pressure Air Temp Water Temp Dewpoint Dewpoint Depression Visibility Wind Speed Wind Dir Waves Ship Positions

Astro Chloe

Last reported at 2016-Apr-08 10:31 UTC. Time now 2016-May-02 08:18 UTC.
Position N 28°25' W 090°27'.
Warning: this ship's position is 23 days out of date.

Length 333 m; draft 14.9 m.

Type: Ship (hazmat cat A). MMSI: 240839000.

Date/timePositionNaut miles runAvg speedWind from/ knotsBaromVisibWave heightAir tempDewpointWater temp
2016-Apr-08 10:31N 28°25' W 090°27'0 0.0
2016-Apr-08 09:22N 28°25' W 090°27'0 0.0
2016-Apr-08 08:19N 28°25' W 090°27'0 0.1
2016-Apr-08 04:29N 28°25' W 090°27'5 4.5
2016-Apr-08 03:21N 28°21' W 090°30'4 4.6
2016-Apr-08 02:33N 28°18' W 090°32'1 0.9
2016-Apr-08 01:33N 28°17' W 090°33'45 1.2
2016-Apr-06 11:31N 28°52' W 090°01'1 0.9
2016-Apr-06 10:33N 28°52' W 090°02'4 4.3
2016-Apr-06 09:33N 28°50' W 089°57'3 0.6
2016-Apr-06 05:28N 28°48' W 089°56'0 0.0
2016-Apr-06 04:28N 28°48' W 089°56'  
Track history (hours):
 
Tides and Currents Weather Stations Pressure Air Temp Water Temp Dewpoint Dewpoint Depression Visibility Wind Speed Wind Dir Waves Ship Positions

Astro Chloe

Last reported at 2016-Apr-08 10:31 UTC. Time now 2016-May-02 08:18 UTC.
Position N 28°25' W 090°27'.
Warning: this ship's position is 23 days out of date.

Length 333 m; draft 14.9 m.

Type: Ship (hazmat cat A). MMSI: 240839000.

Date/timePositionNaut miles runAvg speedWind from/ knotsBaromVisibWave heightAir tempDewpointWater temp
2016-Apr-08 10:31N 28°25' W 090°27'0 0.0
2016-Apr-08 09:22N 28°25' W 090°27'0 0.0
2016-Apr-08 08:19N 28°25' W 090°27'0 0.1
2016-Apr-08 04:29N 28°25' W 090°27'5 4.5
2016-Apr-08 03:21N 28°21' W 090°30'4 4.6
2016-Apr-08 02:33N 28°18' W 090°32'1 0.9
2016-Apr-08 01:33N 28°17' W 090°33'45 1.2
2016-Apr-06 11:31N 28°52' W 090°01'1 0.9
2016-Apr-06 10:33N 28°52' W 090°02'4 4.3
2016-Apr-06 09:33N 28°50' W 089°57'3 0.6
2016-Apr-06 05:28N 28°48' W 089°56'0 0.0
2016-Apr-06 04:28N 28°48' W 089°56'  

Dump ship's entire track history